sensor_id;sensor_type;location;lat;lon;timestamp;P1;durP1;ratioP1;P2;durP2;ratioP2
434;SDS011;204;48.942;9.256;2022-10-17T00:00:19;5.23;;;4.00;;
434;SDS011;204;48.942;9.256;2022-10-17T00:02:45;4.57;;;4.10;;
434;SDS011;204;48.942;9.256;2022-10-17T00:05:10;9.40;;;4.37;;
434;SDS011;204;48.942;9.256;2022-10-17T00:07:36;6.53;;;4.40;;
434;SDS011;204;48.942;9.256;2022-10-17T00:10:03;6.30;;;4.85;;
434;SDS011;204;48.942;9.256;2022-10-17T00:12:30;4.35;;;4.05;;
434;SDS011;204;48.942;9.256;2022-10-17T00:14:55;9.20;;;5.37;;
434;SDS011;204;48.942;9.256;2022-10-17T00:17:21;4.80;;;4.50;;
434;SDS011;204;48.942;9.256;2022-10-17T00:19:46;7.20;;;5.03;;
434;SDS011;204;48.942;9.256;2022-10-17T00:22:12;9.43;;;4.87;;
434;SDS011;204;48.942;9.256;2022-10-17T00:24:38;5.20;;;4.93;;
434;SDS011;204;48.942;9.256;2022-10-17T00:27:03;5.70;;;5.40;;
434;SDS011;204;48.942;9.256;2022-10-17T00:29:29;12.03;;;5.63;;
434;SDS011;204;48.942;9.256;2022-10-17T00:31:55;8.87;;;4.80;;
434;SDS011;204;48.942;9.256;2022-10-17T00:34:21;7.20;;;4.30;;
434;SDS011;204;48.942;9.256;2022-10-17T00:36:47;15.00;;;4.82;;
434;SDS011;204;48.942;9.256;2022-10-17T00:39:12;6.10;;;4.90;;
434;SDS011;204;48.942;9.256;2022-10-17T00:41:38;6.80;;;4.80;;
434;SDS011;204;48.942;9.256;2022-10-17T00:44:05;6.40;;;5.03;;
434;SDS011;204;48.942;9.256;2022-10-17T00:46:51;5.93;;;4.75;;
434;SDS011;204;48.942;9.256;2022-10-17T00:49:17;9.00;;;5.13;;
434;SDS011;204;48.942;9.256;2022-10-17T00:51:48;6.05;;;4.63;;
434;SDS011;204;48.942;9.256;2022-10-17T00:54:18;5.90;;;4.93;;
434;SDS011;204;48.942;9.256;2022-10-17T00:56:46;8.75;;;5.63;;
434;SDS011;204;48.942;9.256;2022-10-17T00:59:13;5.45;;;4.05;;
434;SDS011;204;48.942;9.256;2022-10-17T01:01:43;4.60;;;4.30;;
434;SDS011;204;48.942;9.256;2022-10-17T01:04:18;9.07;;;5.03;;
434;SDS011;204;48.942;9.256;2022-10-17T01:06:44;4.47;;;4.23;;
434;SDS011;204;48.942;9.256;2022-10-17T01:09:09;8.70;;;5.00;;
434;SDS011;204;48.942;9.256;2022-10-17T01:11:48;6.00;;;3.63;;
434;SDS011;204;48.942;9.256;2022-10-17T01:14:19;8.00;;;4.68;;
434;SDS011;204;48.942;9.256;2022-10-17T01:20:05;5.57;;;4.55;;
434;SDS011;204;48.942;9.256;2022-10-17T01:25:29;8.48;;;4.45;;
434;SDS011;204;48.942;9.256;2022-10-17T01:33:54;9.75;;;7.00;;
434;SDS011;204;48.942;9.256;2022-10-17T01:39:02;11.48;;;6.25;;
434;SDS011;204;48.942;9.256;2022-10-17T01:42:01;9.60;;;5.90;;
434;SDS011;204;48.942;9.256;2022-10-17T01:47:20;7.97;;;6.25;;
434;SDS011;204;48.942;9.256;2022-10-17T01:49:50;6.15;;;5.85;;
434;SDS011;204;48.942;9.256;2022-10-17T01:52:24;14.10;;;6.40;;
434;SDS011;204;48.942;9.256;2022-10-17T01:54:57;6.47;;;5.35;;
434;SDS011;204;48.942;9.256;2022-10-17T01:57:35;10.55;;;5.03;;
434;SDS011;204;48.942;9.256;2022-10-17T02:00:05;5.38;;;5.10;;
434;SDS011;204;48.942;9.256;2022-10-17T02:02:35;6.72;;;5.20;;
434;SDS011;204;48.942;9.256;2022-10-17T02:05:02;6.18;;;5.55;;
434;SDS011;204;48.942;9.256;2022-10-17T02:07:28;7.95;;;6.10;;
434;SDS011;204;48.942;9.256;2022-10-17T02:09:53;7.73;;;5.30;;
434;SDS011;204;48.942;9.256;2022-10-17T02:17:43;8.05;;;4.50;;
434;SDS011;204;48.942;9.256;2022-10-17T02:20:34;5.55;;;4.50;;
434;SDS011;204;48.942;9.256;2022-10-17T02:28:19;7.53;;;4.93;;
434;SDS011;204;48.942;9.256;2022-10-17T02:30:59;4.95;;;3.78;;
434;SDS011;204;48.942;9.256;2022-10-17T02:33:28;5.68;;;3.90;;
434;SDS011;204;48.942;9.256;2022-10-17T02:36:01;4.68;;;4.40;;
434;SDS011;204;48.942;9.256;2022-10-17T02:38:30;3.97;;;3.75;;
434;SDS011;204;48.942;9.256;2022-10-17T02:40:58;9.20;;;4.53;;
434;SDS011;204;48.942;9.256;2022-10-17T02:43:24;6.97;;;4.28;;
434;SDS011;204;48.942;9.256;2022-10-17T02:45:50;4.50;;;4.00;;
434;SDS011;204;48.942;9.256;2022-10-17T02:53:34;14.30;;;4.00;;
434;SDS011;204;48.942;9.256;2022-10-17T02:56:11;4.57;;;3.80;;
434;SDS011;204;48.942;9.256;2022-10-17T02:58:42;4.32;;;4.00;;
434;SDS011;204;48.942;9.256;2022-10-17T03:01:12;4.45;;;3.88;;
434;SDS011;204;48.942;9.256;2022-10-17T03:03:37;5.80;;;4.00;;
434;SDS011;204;48.942;9.256;2022-10-17T03:06:03;4.73;;;4.37;;
434;SDS011;204;48.942;9.256;2022-10-17T03:08:29;4.63;;;4.10;;
434;SDS011;204;48.942;9.256;2022-10-17T03:10:55;6.03;;;4.40;;
434;SDS011;204;48.942;9.256;2022-10-17T03:13:20;5.77;;;4.83;;
434;SDS011;204;48.942;9.256;2022-10-17T03:15:46;6.67;;;4.70;;
434;SDS011;204;48.942;9.256;2022-10-17T03:18:11;6.00;;;4.40;;
434;SDS011;204;48.942;9.256;2022-10-17T03:20:37;7.75;;;4.65;;
434;SDS011;204;48.942;9.256;2022-10-17T03:23:03;8.47;;;4.10;;
434;SDS011;204;48.942;9.256;2022-10-17T03:25:29;7.33;;;4.60;;
434;SDS011;204;48.942;9.256;2022-10-17T03:27:56;11.17;;;5.20;;
434;SDS011;204;48.942;9.256;2022-10-17T03:30:23;6.88;;;4.07;;
434;SDS011;204;48.942;9.256;2022-10-17T03:32:48;5.53;;;4.63;;
434;SDS011;204;48.942;9.256;2022-10-17T03:35:14;9.07;;;4.90;;
434;SDS011;204;48.942;9.256;2022-10-17T03:37:39;9.13;;;5.27;;
434;SDS011;204;48.942;9.256;2022-10-17T03:40:05;7.90;;;4.73;;
434;SDS011;204;48.942;9.256;2022-10-17T03:42:31;6.10;;;4.43;;
434;SDS011;204;48.942;9.256;2022-10-17T03:44:56;8.10;;;4.93;;
434;SDS011;204;48.942;9.256;2022-10-17T03:47:22;8.07;;;5.60;;
434;SDS011;204;48.942;9.256;2022-10-17T03:49:47;7.20;;;5.63;;
434;SDS011;204;48.942;9.256;2022-10-17T03:52:13;6.63;;;4.90;;
434;SDS011;204;48.942;9.256;2022-10-17T03:54:39;9.77;;;5.32;;
434;SDS011;204;48.942;9.256;2022-10-17T03:57:05;9.00;;;5.53;;
434;SDS011;204;48.942;9.256;2022-10-17T03:59:30;5.63;;;5.07;;
434;SDS011;204;48.942;9.256;2022-10-17T04:01:56;9.63;;;5.13;;
434;SDS011;204;48.942;9.256;2022-10-17T04:04:21;5.47;;;4.60;;
434;SDS011;204;48.942;9.256;2022-10-17T04:06:47;5.73;;;5.43;;
434;SDS011;204;48.942;9.256;2022-10-17T04:09:12;6.53;;;4.90;;
434;SDS011;204;48.942;9.256;2022-10-17T04:11:38;5.43;;;4.37;;
434;SDS011;204;48.942;9.256;2022-10-17T04:14:04;7.77;;;4.60;;
434;SDS011;204;48.942;9.256;2022-10-17T04:16:30;5.57;;;4.45;;
434;SDS011;204;48.942;9.256;2022-10-17T04:18:56;8.67;;;4.30;;
434;SDS011;204;48.942;9.256;2022-10-17T04:21:24;19.27;;;4.53;;
434;SDS011;204;48.942;9.256;2022-10-17T04:23:57;6.00;;;4.50;;
434;SDS011;204;48.942;9.256;2022-10-17T04:26:24;14.52;;;4.90;;
434;SDS011;204;48.942;9.256;2022-10-17T04:28:49;4.80;;;4.10;;
434;SDS011;204;48.942;9.256;2022-10-17T04:31:15;5.70;;;4.20;;
434;SDS011;204;48.942;9.256;2022-10-17T04:33:47;9.55;;;4.63;;
434;SDS011;204;48.942;9.256;2022-10-17T04:36:15;6.82;;;4.55;;
434;SDS011;204;48.942;9.256;2022-10-17T04:38:42;6.13;;;4.20;;
434;SDS011;204;48.942;9.256;2022-10-17T04:41:13;7.63;;;4.25;;
434;SDS011;204;48.942;9.256;2022-10-17T04:43:40;6.57;;;4.18;;
434;SDS011;204;48.942;9.256;2022-10-17T04:46:07;7.10;;;5.80;;
434;SDS011;204;48.942;9.256;2022-10-17T04:48:37;6.35;;;4.85;;
434;SDS011;204;48.942;9.256;2022-10-17T04:51:05;5.65;;;4.25;;
434;SDS011;204;48.942;9.256;2022-10-17T04:53:33;7.00;;;4.93;;
434;SDS011;204;48.942;9.256;2022-10-17T04:55:59;7.72;;;4.70;;
434;SDS011;204;48.942;9.256;2022-10-17T04:58:27;7.13;;;4.05;;
434;SDS011;204;48.942;9.256;2022-10-17T05:00:53;6.95;;;4.22;;
434;SDS011;204;48.942;9.256;2022-10-17T05:03:20;6.60;;;4.83;;
434;SDS011;204;48.942;9.256;2022-10-17T05:05:45;7.53;;;5.27;;
434;SDS011;204;48.942;9.256;2022-10-17T05:08:11;6.27;;;4.97;;
434;SDS011;204;48.942;9.256;2022-10-17T05:10:37;6.63;;;4.30;;
434;SDS011;204;48.942;9.256;2022-10-17T05:13:04;9.70;;;5.05;;
434;SDS011;204;48.942;9.256;2022-10-17T05:15:30;6.28;;;5.40;;
434;SDS011;204;48.942;9.256;2022-10-17T05:17:55;6.40;;;5.60;;
434;SDS011;204;48.942;9.256;2022-10-17T05:20:22;10.20;;;5.50;;
434;SDS011;204;48.942;9.256;2022-10-17T05:22:47;6.90;;;4.80;;
434;SDS011;204;48.942;9.256;2022-10-17T05:25:13;14.43;;;6.50;;
434;SDS011;204;48.942;9.256;2022-10-17T05:27:39;10.40;;;6.10;;
434;SDS011;204;48.942;9.256;2022-10-17T05:30:04;10.80;;;5.97;;
434;SDS011;204;48.942;9.256;2022-10-17T05:32:30;6.35;;;5.50;;
434;SDS011;204;48.942;9.256;2022-10-17T05:34:56;6.33;;;5.33;;
434;SDS011;204;48.942;9.256;2022-10-17T05:37:22;16.83;;;5.37;;
434;SDS011;204;48.942;9.256;2022-10-17T05:39:47;6.80;;;5.23;;
434;SDS011;204;48.942;9.256;2022-10-17T05:42:13;7.17;;;5.47;;
434;SDS011;204;48.942;9.256;2022-10-17T05:44:38;6.77;;;5.17;;
434;SDS011;204;48.942;9.256;2022-10-17T05:47:05;11.90;;;7.88;;
434;SDS011;204;48.942;9.256;2022-10-17T05:49:34;16.98;;;10.57;;
434;SDS011;204;48.942;9.256;2022-10-17T05:51:59;13.47;;;8.10;;
434;SDS011;204;48.942;9.256;2022-10-17T05:54:25;17.08;;;6.28;;
434;SDS011;204;48.942;9.256;2022-10-17T05:56:52;11.07;;;6.60;;
434;SDS011;204;48.942;9.256;2022-10-17T05:59:18;13.98;;;6.15;;
434;SDS011;204;48.942;9.256;2022-10-17T06:01:44;12.67;;;6.00;;
434;SDS011;204;48.942;9.256;2022-10-17T06:04:09;12.90;;;5.83;;
434;SDS011;204;48.942;9.256;2022-10-17T06:06:36;12.23;;;6.27;;
434;SDS011;204;48.942;9.256;2022-10-17T06:09:02;9.93;;;5.28;;
434;SDS011;204;48.942;9.256;2022-10-17T06:11:29;11.35;;;5.82;;
434;SDS011;204;48.942;9.256;2022-10-17T06:13:54;10.80;;;7.10;;
434;SDS011;204;48.942;9.256;2022-10-17T06:16:20;12.93;;;5.93;;
434;SDS011;204;48.942;9.256;2022-10-17T06:18:46;7.43;;;4.80;;
434;SDS011;204;48.942;9.256;2022-10-17T06:21:13;8.90;;;5.23;;
434;SDS011;204;48.942;9.256;2022-10-17T06:23:42;6.13;;;4.88;;
434;SDS011;204;48.942;9.256;2022-10-17T06:26:08;15.57;;;7.07;;
434;SDS011;204;48.942;9.256;2022-10-17T06:28:34;10.85;;;5.75;;
434;SDS011;204;48.942;9.256;2022-10-17T06:31:04;11.40;;;6.13;;
434;SDS011;204;48.942;9.256;2022-10-17T06:33:31;6.70;;;5.30;;
434;SDS011;204;48.942;9.256;2022-10-17T06:35:57;7.70;;;5.00;;
434;SDS011;204;48.942;9.256;2022-10-17T06:38:22;8.53;;;4.53;;
434;SDS011;204;48.942;9.256;2022-10-17T06:40:48;7.77;;;5.37;;
434;SDS011;204;48.942;9.256;2022-10-17T06:43:14;12.87;;;5.77;;
434;SDS011;204;48.942;9.256;2022-10-17T06:45:39;9.77;;;6.30;;
434;SDS011;204;48.942;9.256;2022-10-17T06:48:05;10.80;;;4.90;;
434;SDS011;204;48.942;9.256;2022-10-17T06:50:32;6.22;;;4.93;;
434;SDS011;204;48.942;9.256;2022-10-17T06:52:58;8.43;;;5.90;;
434;SDS011;204;48.942;9.256;2022-10-17T06:55:24;12.47;;;11.20;;
434;SDS011;204;48.942;9.256;2022-10-17T06:57:49;17.53;;;10.70;;
434;SDS011;204;48.942;9.256;2022-10-17T07:00:18;11.10;;;9.60;;
434;SDS011;204;48.942;9.256;2022-10-17T07:02:43;16.30;;;8.97;;
434;SDS011;204;48.942;9.256;2022-10-17T07:05:09;9.33;;;8.60;;
434;SDS011;204;48.942;9.256;2022-10-17T07:07:34;7.63;;;7.23;;
434;SDS011;204;48.942;9.256;2022-10-17T07:10:00;8.00;;;7.20;;
434;SDS011;204;48.942;9.256;2022-10-17T07:12:27;14.43;;;8.00;;
434;SDS011;204;48.942;9.256;2022-10-17T07:14:53;10.40;;;5.80;;
434;SDS011;204;48.942;9.256;2022-10-17T07:17:19;14.47;;;5.63;;
434;SDS011;204;48.942;9.256;2022-10-17T07:19:44;9.97;;;7.60;;
434;SDS011;204;48.942;9.256;2022-10-17T07:22:10;18.00;;;6.33;;
434;SDS011;204;48.942;9.256;2022-10-17T07:24:36;8.80;;;6.60;;
434;SDS011;204;48.942;9.256;2022-10-17T07:27:02;8.23;;;5.93;;
434;SDS011;204;48.942;9.256;2022-10-17T07:29:28;6.10;;;5.03;;
434;SDS011;204;48.942;9.256;2022-10-17T07:31:53;7.60;;;5.23;;
434;SDS011;204;48.942;9.256;2022-10-17T07:34:19;5.60;;;4.87;;
434;SDS011;204;48.942;9.256;2022-10-17T07:36:44;10.23;;;5.63;;
434;SDS011;204;48.942;9.256;2022-10-17T07:39:10;6.37;;;5.70;;
434;SDS011;204;48.942;9.256;2022-10-17T07:41:36;10.30;;;4.87;;
434;SDS011;204;48.942;9.256;2022-10-17T07:44:02;6.10;;;4.70;;
434;SDS011;204;48.942;9.256;2022-10-17T07:46:28;12.10;;;4.57;;
434;SDS011;204;48.942;9.256;2022-10-17T07:48:53;4.27;;;3.97;;
434;SDS011;204;48.942;9.256;2022-10-17T07:51:19;7.40;;;5.30;;
434;SDS011;204;48.942;9.256;2022-10-17T07:53:46;7.70;;;4.43;;
434;SDS011;204;48.942;9.256;2022-10-17T07:56:12;9.10;;;5.32;;
434;SDS011;204;48.942;9.256;2022-10-17T07:58:38;6.90;;;4.70;;
434;SDS011;204;48.942;9.256;2022-10-17T08:01:05;6.63;;;5.03;;
434;SDS011;204;48.942;9.256;2022-10-17T08:03:34;5.18;;;4.72;;
434;SDS011;204;48.942;9.256;2022-10-17T08:06:01;6.63;;;3.83;;
434;SDS011;204;48.942;9.256;2022-10-17T08:08:28;5.88;;;4.50;;
434;SDS011;204;48.942;9.256;2022-10-17T08:10:54;4.93;;;4.33;;
434;SDS011;204;48.942;9.256;2022-10-17T08:13:24;5.63;;;3.88;;
434;SDS011;204;48.942;9.256;2022-10-17T08:15:50;3.37;;;3.00;;
434;SDS011;204;48.942;9.256;2022-10-17T08:18:16;3.73;;;3.53;;
434;SDS011;204;48.942;9.256;2022-10-17T08:20:42;4.40;;;3.75;;
434;SDS011;204;48.942;9.256;2022-10-17T08:23:07;6.60;;;4.13;;
434;SDS011;204;48.942;9.256;2022-10-17T08:25:33;6.47;;;3.90;;
434;SDS011;204;48.942;9.256;2022-10-17T08:27:59;5.67;;;3.93;;
434;SDS011;204;48.942;9.256;2022-10-17T08:30:24;4.17;;;2.93;;
434;SDS011;204;48.942;9.256;2022-10-17T08:32:50;6.30;;;4.03;;
434;SDS011;204;48.942;9.256;2022-10-17T08:35:16;7.77;;;3.27;;
434;SDS011;204;48.942;9.256;2022-10-17T08:37:42;3.63;;;3.43;;
434;SDS011;204;48.942;9.256;2022-10-17T08:40:19;4.60;;;3.40;;
434;SDS011;204;48.942;9.256;2022-10-17T08:43:07;4.60;;;2.33;;
434;SDS011;204;48.942;9.256;2022-10-17T08:45:44;5.17;;;3.10;;
434;SDS011;204;48.942;9.256;2022-10-17T08:48:20;9.50;;;3.30;;
434;SDS011;204;48.942;9.256;2022-10-17T08:50:51;4.73;;;3.80;;
434;SDS011;204;48.942;9.256;2022-10-17T08:56:20;4.90;;;3.60;;
434;SDS011;204;48.942;9.256;2022-10-17T08:58:49;5.87;;;3.13;;
434;SDS011;204;48.942;9.256;2022-10-17T09:01:25;4.63;;;2.73;;
434;SDS011;204;48.942;9.256;2022-10-17T09:06:58;3.10;;;2.90;;
434;SDS011;204;48.942;9.256;2022-10-17T09:15:30;6.70;;;3.03;;
434;SDS011;204;48.942;9.256;2022-10-17T09:18:02;4.00;;;2.47;;
434;SDS011;204;48.942;9.256;2022-10-17T09:25:54;3.10;;;2.90;;
434;SDS011;204;48.942;9.256;2022-10-17T09:28:32;7.97;;;2.60;;
434;SDS011;204;48.942;9.256;2022-10-17T09:33:31;8.50;;;3.70;;
434;SDS011;204;48.942;9.256;2022-10-17T09:36:02;5.07;;;2.90;;
434;SDS011;204;48.942;9.256;2022-10-17T09:38:40;5.10;;;2.70;;
434;SDS011;204;48.942;9.256;2022-10-17T09:44:23;2.30;;;2.10;;
434;SDS011;204;48.942;9.256;2022-10-17T09:49:22;6.73;;;3.17;;
434;SDS011;204;48.942;9.256;2022-10-17T09:51:55;2.53;;;2.33;;
434;SDS011;204;48.942;9.256;2022-10-17T09:54:26;3.43;;;2.00;;
434;SDS011;204;48.942;9.256;2022-10-17T09:59:32;4.37;;;2.07;;
434;SDS011;204;48.942;9.256;2022-10-17T10:02:13;2.80;;;2.40;;
434;SDS011;204;48.942;9.256;2022-10-17T10:07:16;4.10;;;2.07;;
434;SDS011;204;48.942;9.256;2022-10-17T10:09:45;3.63;;;2.27;;
434;SDS011;204;48.942;9.256;2022-10-17T10:12:33;3.83;;;2.23;;
434;SDS011;204;48.942;9.256;2022-10-17T10:15:01;3.87;;;2.13;;
434;SDS011;204;48.942;9.256;2022-10-17T10:17:46;5.47;;;2.00;;
434;SDS011;204;48.942;9.256;2022-10-17T10:23:15;6.03;;;2.50;;
434;SDS011;204;48.942;9.256;2022-10-17T10:25:56;3.97;;;2.03;;
434;SDS011;204;48.942;9.256;2022-10-17T10:28:25;3.20;;;2.53;;
434;SDS011;204;48.942;9.256;2022-10-17T10:30:57;3.03;;;2.20;;
434;SDS011;204;48.942;9.256;2022-10-17T10:33:28;6.00;;;2.53;;
434;SDS011;204;48.942;9.256;2022-10-17T10:35:56;3.17;;;1.87;;
434;SDS011;204;48.942;9.256;2022-10-17T10:38:26;3.83;;;1.80;;
434;SDS011;204;48.942;9.256;2022-10-17T10:40:56;3.53;;;2.23;;
434;SDS011;204;48.942;9.256;2022-10-17T10:45:56;2.57;;;2.20;;
434;SDS011;204;48.942;9.256;2022-10-17T10:48:26;4.57;;;1.90;;
434;SDS011;204;48.942;9.256;2022-10-17T10:56:45;2.43;;;2.23;;
434;SDS011;204;48.942;9.256;2022-10-17T10:59:30;3.33;;;2.30;;
434;SDS011;204;48.942;9.256;2022-10-17T11:07:29;3.83;;;2.13;;
434;SDS011;204;48.942;9.256;2022-10-17T11:13:08;3.23;;;2.30;;
434;SDS011;204;48.942;9.256;2022-10-17T11:18:56;2.50;;;2.30;;
434;SDS011;204;48.942;9.256;2022-10-17T11:24:34;2.13;;;2.00;;
434;SDS011;204;48.942;9.256;2022-10-17T11:27:07;1.83;;;1.73;;
434;SDS011;204;48.942;9.256;2022-10-17T11:29:34;9.27;;;2.57;;
434;SDS011;204;48.942;9.256;2022-10-17T11:32:04;4.13;;;3.10;;
434;SDS011;204;48.942;9.256;2022-10-17T11:34:58;2.30;;;2.10;;
434;SDS011;204;48.942;9.256;2022-10-17T11:37:29;2.83;;;2.37;;
434;SDS011;204;48.942;9.256;2022-10-17T11:40:05;1.83;;;1.73;;
434;SDS011;204;48.942;9.256;2022-10-17T11:42:47;5.60;;;2.37;;
434;SDS011;204;48.942;9.256;2022-10-17T11:45:19;4.83;;;2.17;;
434;SDS011;204;48.942;9.256;2022-10-17T11:47:49;3.77;;;2.13;;
434;SDS011;204;48.942;9.256;2022-10-17T11:50:37;2.53;;;2.37;;
434;SDS011;204;48.942;9.256;2022-10-17T11:55:38;3.00;;;2.17;;
434;SDS011;204;48.942;9.256;2022-10-17T12:01:14;3.90;;;3.73;;
434;SDS011;204;48.942;9.256;2022-10-17T12:07:47;4.70;;;2.73;;
434;SDS011;204;48.942;9.256;2022-10-17T12:12:28;3.37;;;2.40;;
434;SDS011;204;48.942;9.256;2022-10-17T12:15:39;3.33;;;2.10;;
434;SDS011;204;48.942;9.256;2022-10-17T12:17:54;4.50;;;2.47;;
434;SDS011;204;48.942;9.256;2022-10-17T12:25:34;3.07;;;2.80;;
434;SDS011;204;48.942;9.256;2022-10-17T12:30:47;3.30;;;2.47;;
434;SDS011;204;48.942;9.256;2022-10-17T12:33:23;3.33;;;2.90;;
434;SDS011;204;48.942;9.256;2022-10-17T12:38:51;5.63;;;2.50;;
434;SDS011;204;48.942;9.256;2022-10-17T12:52:25;4.93;;;2.60;;
434;SDS011;204;48.942;9.256;2022-10-17T12:57:38;4.50;;;2.27;;
434;SDS011;204;48.942;9.256;2022-10-17T13:00:54;4.83;;;4.27;;
434;SDS011;204;48.942;9.256;2022-10-17T13:03:05;10.13;;;5.53;;
434;SDS011;204;48.942;9.256;2022-10-17T13:05:34;3.90;;;3.10;;
434;SDS011;204;48.942;9.256;2022-10-17T13:08:03;3.60;;;2.50;;
434;SDS011;204;48.942;9.256;2022-10-17T13:10:32;5.27;;;2.60;;
434;SDS011;204;48.942;9.256;2022-10-17T13:13:04;2.80;;;1.93;;
434;SDS011;204;48.942;9.256;2022-10-17T13:15:34;1.07;;;0.97;;
434;SDS011;204;48.942;9.256;2022-10-17T13:18:01;3.87;;;2.63;;
434;SDS011;204;48.942;9.256;2022-10-17T13:20:27;3.30;;;2.10;;
434;SDS011;204;48.942;9.256;2022-10-17T13:22:55;6.10;;;2.40;;
434;SDS011;204;48.942;9.256;2022-10-17T13:25:21;4.67;;;1.97;;
434;SDS011;204;48.942;9.256;2022-10-17T13:27:49;4.80;;;2.37;;
434;SDS011;204;48.942;9.256;2022-10-17T13:30:33;5.73;;;2.80;;
434;SDS011;204;48.942;9.256;2022-10-17T13:33:00;5.13;;;2.20;;
434;SDS011;204;48.942;9.256;2022-10-17T13:35:28;5.17;;;2.27;;
434;SDS011;204;48.942;9.256;2022-10-17T13:37:59;3.17;;;2.33;;
434;SDS011;204;48.942;9.256;2022-10-17T13:40:29;3.40;;;2.27;;
434;SDS011;204;48.942;9.256;2022-10-17T13:43:01;4.60;;;4.30;;
434;SDS011;204;48.942;9.256;2022-10-17T13:48:04;7.30;;;2.47;;
434;SDS011;204;48.942;9.256;2022-10-17T13:50:40;3.70;;;2.60;;
434;SDS011;204;48.942;9.256;2022-10-17T13:58:16;4.00;;;2.40;;
434;SDS011;204;48.942;9.256;2022-10-17T14:00:45;2.97;;;2.77;;
434;SDS011;204;48.942;9.256;2022-10-17T14:03:13;6.43;;;3.50;;
434;SDS011;204;48.942;9.256;2022-10-17T14:08:23;2.93;;;2.70;;
434;SDS011;204;48.942;9.256;2022-10-17T14:10:49;4.60;;;3.07;;
434;SDS011;204;48.942;9.256;2022-10-17T14:13:19;2.80;;;2.50;;
434;SDS011;204;48.942;9.256;2022-10-17T14:15:47;5.60;;;2.20;;
434;SDS011;204;48.942;9.256;2022-10-17T14:18:16;3.63;;;2.30;;
434;SDS011;204;48.942;9.256;2022-10-17T14:20:45;2.70;;;2.30;;
434;SDS011;204;48.942;9.256;2022-10-17T14:23:28;4.23;;;2.77;;
434;SDS011;204;48.942;9.256;2022-10-17T14:26:04;2.57;;;2.37;;
434;SDS011;204;48.942;9.256;2022-10-17T14:28:36;5.03;;;2.23;;
434;SDS011;204;48.942;9.256;2022-10-17T14:31:09;2.70;;;2.50;;
434;SDS011;204;48.942;9.256;2022-10-17T14:33:42;3.67;;;2.50;;
434;SDS011;204;48.942;9.256;2022-10-17T14:36:10;4.53;;;2.70;;
434;SDS011;204;48.942;9.256;2022-10-17T14:38:36;6.70;;;2.50;;
434;SDS011;204;48.942;9.256;2022-10-17T14:41:12;2.30;;;2.10;;
434;SDS011;204;48.942;9.256;2022-10-17T14:43:42;4.33;;;2.43;;
434;SDS011;204;48.942;9.256;2022-10-17T14:46:14;2.70;;;2.40;;
434;SDS011;204;48.942;9.256;2022-10-17T14:48:40;3.20;;;2.13;;
434;SDS011;204;48.942;9.256;2022-10-17T14:51:11;3.87;;;2.60;;
434;SDS011;204;48.942;9.256;2022-10-17T14:53:39;3.23;;;2.80;;
434;SDS011;204;48.942;9.256;2022-10-17T14:56:22;2.63;;;2.17;;
434;SDS011;204;48.942;9.256;2022-10-17T14:58:49;5.20;;;2.60;;
434;SDS011;204;48.942;9.256;2022-10-17T15:01:16;7.20;;;2.37;;
434;SDS011;204;48.942;9.256;2022-10-17T15:03:41;3.10;;;2.33;;
434;SDS011;204;48.942;9.256;2022-10-17T15:06:30;5.70;;;2.13;;
434;SDS011;204;48.942;9.256;2022-10-17T15:08:56;6.17;;;2.23;;
434;SDS011;204;48.942;9.256;2022-10-17T15:11:22;2.97;;;1.90;;
434;SDS011;204;48.942;9.256;2022-10-17T15:13:48;6.20;;;2.40;;
434;SDS011;204;48.942;9.256;2022-10-17T15:16:14;3.40;;;2.50;;
434;SDS011;204;48.942;9.256;2022-10-17T15:18:45;5.87;;;2.53;;
434;SDS011;204;48.942;9.256;2022-10-17T15:21:11;2.63;;;2.30;;
434;SDS011;204;48.942;9.256;2022-10-17T15:23:38;4.00;;;2.43;;
434;SDS011;204;48.942;9.256;2022-10-17T15:26:10;5.80;;;2.43;;
434;SDS011;204;48.942;9.256;2022-10-17T15:28:40;7.07;;;2.73;;
434;SDS011;204;48.942;9.256;2022-10-17T15:31:08;6.00;;;5.60;;
434;SDS011;204;48.942;9.256;2022-10-17T15:33:35;5.87;;;3.50;;
434;SDS011;204;48.942;9.256;2022-10-17T15:36:01;3.10;;;2.17;;
434;SDS011;204;48.942;9.256;2022-10-17T15:38:26;4.03;;;2.70;;
434;SDS011;204;48.942;9.256;2022-10-17T15:40:52;6.50;;;2.17;;
434;SDS011;204;48.942;9.256;2022-10-17T15:43:17;4.87;;;2.20;;
434;SDS011;204;48.942;9.256;2022-10-17T15:45:43;2.70;;;2.27;;
434;SDS011;204;48.942;9.256;2022-10-17T15:48:09;6.40;;;2.30;;
434;SDS011;204;48.942;9.256;2022-10-17T15:50:48;3.93;;;2.23;;
434;SDS011;204;48.942;9.256;2022-10-17T15:53:13;9.43;;;3.00;;
434;SDS011;204;48.942;9.256;2022-10-17T15:55:39;4.60;;;2.53;;
434;SDS011;204;48.942;9.256;2022-10-17T15:58:05;4.93;;;2.40;;
434;SDS011;204;48.942;9.256;2022-10-17T16:00:34;5.80;;;2.43;;
434;SDS011;204;48.942;9.256;2022-10-17T16:02:59;4.77;;;2.63;;
434;SDS011;204;48.942;9.256;2022-10-17T16:05:25;5.77;;;2.87;;
434;SDS011;204;48.942;9.256;2022-10-17T16:07:52;7.33;;;2.50;;
434;SDS011;204;48.942;9.256;2022-10-17T16:10:18;2.17;;;2.03;;
434;SDS011;204;48.942;9.256;2022-10-17T16:12:44;5.47;;;3.83;;
434;SDS011;204;48.942;9.256;2022-10-17T16:15:14;16.33;;;14.20;;
434;SDS011;204;48.942;9.256;2022-10-17T16:17:43;9.47;;;8.97;;
434;SDS011;204;48.942;9.256;2022-10-17T16:20:11;10.40;;;6.03;;
434;SDS011;204;48.942;9.256;2022-10-17T16:22:37;7.63;;;5.43;;
434;SDS011;204;48.942;9.256;2022-10-17T16:25:06;3.37;;;3.13;;
434;SDS011;204;48.942;9.256;2022-10-17T16:27:43;6.73;;;3.30;;
434;SDS011;204;48.942;9.256;2022-10-17T16:30:13;6.10;;;4.93;;
434;SDS011;204;48.942;9.256;2022-10-17T16:32:39;3.43;;;3.23;;
434;SDS011;204;48.942;9.256;2022-10-17T16:35:05;6.17;;;3.30;;
434;SDS011;204;48.942;9.256;2022-10-17T16:37:31;14.73;;;7.70;;
434;SDS011;204;48.942;9.256;2022-10-17T16:39:57;4.73;;;3.20;;
434;SDS011;204;48.942;9.256;2022-10-17T16:42:23;4.90;;;4.40;;
434;SDS011;204;48.942;9.256;2022-10-17T16:44:49;10.00;;;6.10;;
434;SDS011;204;48.942;9.256;2022-10-17T16:47:15;9.40;;;5.10;;
434;SDS011;204;48.942;9.256;2022-10-17T16:49:42;6.40;;;5.00;;
434;SDS011;204;48.942;9.256;2022-10-17T16:52:07;10.20;;;6.80;;
434;SDS011;204;48.942;9.256;2022-10-17T16:54:33;10.00;;;6.20;;
434;SDS011;204;48.942;9.256;2022-10-17T16:56:59;11.10;;;6.50;;
434;SDS011;204;48.942;9.256;2022-10-17T16:59:26;8.63;;;6.73;;
434;SDS011;204;48.942;9.256;2022-10-17T17:01:52;6.70;;;5.47;;
434;SDS011;204;48.942;9.256;2022-10-17T17:04:18;9.07;;;5.97;;
434;SDS011;204;48.942;9.256;2022-10-17T17:06:44;8.57;;;6.70;;
434;SDS011;204;48.942;9.256;2022-10-17T17:09:09;8.10;;;6.60;;
434;SDS011;204;48.942;9.256;2022-10-17T17:11:35;9.00;;;7.80;;
434;SDS011;204;48.942;9.256;2022-10-17T17:14:02;9.57;;;8.00;;
434;SDS011;204;48.942;9.256;2022-10-17T17:16:29;9.47;;;6.70;;
434;SDS011;204;48.942;9.256;2022-10-17T17:18:57;10.73;;;6.33;;
434;SDS011;204;48.942;9.256;2022-10-17T17:21:24;10.67;;;6.63;;
434;SDS011;204;48.942;9.256;2022-10-17T17:23:52;6.37;;;6.00;;
434;SDS011;204;48.942;9.256;2022-10-17T17:26:20;8.03;;;6.50;;
434;SDS011;204;48.942;9.256;2022-10-17T17:28:47;9.63;;;5.93;;
434;SDS011;204;48.942;9.256;2022-10-17T17:31:18;10.20;;;8.70;;
434;SDS011;204;48.942;9.256;2022-10-17T17:33:46;7.93;;;7.50;;
434;SDS011;204;48.942;9.256;2022-10-17T17:36:13;6.93;;;5.70;;
434;SDS011;204;48.942;9.256;2022-10-17T17:38:41;8.40;;;6.40;;
434;SDS011;204;48.942;9.256;2022-10-17T17:41:09;6.80;;;6.47;;
434;SDS011;204;48.942;9.256;2022-10-17T17:43:39;13.30;;;6.70;;
434;SDS011;204;48.942;9.256;2022-10-17T17:46:06;9.60;;;6.40;;
434;SDS011;204;48.942;9.256;2022-10-17T17:48:32;6.90;;;5.03;;
434;SDS011;204;48.942;9.256;2022-10-17T17:51:02;10.63;;;6.30;;
434;SDS011;204;48.942;9.256;2022-10-17T17:53:29;8.10;;;6.63;;
434;SDS011;204;48.942;9.256;2022-10-17T17:56:04;9.77;;;6.20;;
434;SDS011;204;48.942;9.256;2022-10-17T17:58:35;8.33;;;5.90;;
434;SDS011;204;48.942;9.256;2022-10-17T18:01:07;7.90;;;6.33;;
434;SDS011;204;48.942;9.256;2022-10-17T18:03:36;8.03;;;6.90;;
434;SDS011;204;48.942;9.256;2022-10-17T18:06:06;13.83;;;7.07;;
434;SDS011;204;48.942;9.256;2022-10-17T18:08:32;12.77;;;7.00;;